Alpine, AL (35014)

10:14 AM CST on December 04, 2016 (GMT -0600)
Sycamore,Alabama | | Change Station

Elev 552 ft 33.26 °N, 86.21 °W | Updated 2 seconds ago

Overcast
Overcast
49.5 °F
Feels Like 46 °F
N
8.3
Wind Variable Wind from South
Gusts 16.8 mph

Today
High -- | Low -- °F
--% Chance of Precip.
Yesterday
High -- | Low -- °F
Precip. -- in
Pressure 30.08 in
Visibility 3.0 miles
Clouds Mostly Cloudy 900 ft
Overcast 1300 ft
Windchill 46 °F
Dew Point 47 °F
Humidity 92%
Rainfall 0.37 in
Snow Depth Not available.
6:33 AM 4:37 PM
Waxing Crescent, 23% visible
SPECI KANB 041603Z AUTO 07008KT 3SM BR BKN009 OVC013 08/07 A3008 RMK AO2 CIG 007V011 T00830067
Pressure 30.08 in
Visibility 3.0 miles
Clouds Mostly Cloudy 900 ft
Overcast 1300 ft
Windchill 46 °F
Dew Point 47 °F
Humidity 92%
Rainfall 0.37 in
Snow Depth Not available.
6:33 AM 4:37 PM
Waxing Crescent, 23% visible
SPECI KANB 041603Z AUTO 07008KT 3SM BR BKN009 OVC013 08/07 A3008 RMK AO2 CIG 007V011 T00830067

10-Day Weather Forecast

Almanac

Astronomy

Dec. 04, 2016 Rise Set
Actual Time
Civil Twilight
Nautical Twilight
Astronomical Twilight
Moon
Length of Visible Light
Length of Day
Tomorrow will be .
, % of the Moon is Illuminated

Today's Extremes

State Highs State Lows

Community

WunderPhotos

Upload Photos

1,955,616 photos uploaded!

WunderBlog® & News

Nearby

Air Quality

  Air Quality AQ Index Pollutant
Not available.

Snow Depth

Station Depth Elevation

Earthquake Activity

City Distance Mag. Time & Date
Minimum magnitude displayed is 2.5.

Coastal Water Temperatures

Place Temperature

Stations

Nearby Weather Stations

Station Location Temp. Windchill Dew Point Humidity Wind Precip. Elev Updated Type
                   

Watches & Warnings

There are currently no watches in effect.